Santa Rosa — A8ZS7 — position and weather

sailwx.info

Track history (hours):
 
Tides and Currents Weather Stations Pressure Air Temp Water Temp Dewpoint Dewpoint Depression Visibility Wind Speed Wind Dir Waves Ship Positions

Santa Rosa

Last reported at 2016-Jul-26 07:30 UTC. Time now 2016-Jul-29 02:13 UTC.
Position N 30°32' E 122°60'.

Length 300 m; draft 11.4 m.

Type: Cargo ship. MMSI: 636092266.

Date/timePositionNaut miles runAvg speedWind from/ knotsBaromVisibWave heightAir tempDewpointWater temp
2016-Jul-26 07:30N 30°32' E 122°60'1414.2
2016-Jul-26 06:31N 30°28' E 122°44'3 0.1
2016-Jul-24 22:29N 30°27' E 122°47'6 6.1
2016-Jul-24 21:32N 30°23' E 122°52'48 4.8
2016-Jul-24 11:31N 29°48' E 122°15'9 9.0
2016-Jul-24 10:33N 29°48' E 122°05'4 3.9
2016-Jul-24 09:31N 29°46' E 122°01'0 0.0
2016-Jul-24 04:26N 29°46' E 122°01'0 0.0
2016-Jul-23 20:12N 29°46' E 122°01'3 5.0
2016-Jul-23 19:33N 29°47' E 122°04'1110.5
2016-Jul-23 18:33N 29°47' E 122°16'8 7.8
2016-Jul-23 17:32N 29°44' E 122°25'7 7.5
2016-Jul-23 16:33N 29°41' E 122°32'1510.5
2016-Jul-23 15:06N 29°25' E 122°33'610.9
2016-Jul-23 14:32N 29°19' E 122°33'1111.1
2016-Jul-23 13:33N 29°09' E 122°37'26 1.8
2016-Jul-22 23:07N 28°46' E 122°25'5 7.7
2016-Jul-22 22:26N 28°41' E 122°23'7 8.3
2016-Jul-22 21:33N 28°34' E 122°20'9 8.4
2016-Jul-22 20:31N 28°26' E 122°16'28011.2
2016-Jul-21 19:30N 24°39' E 119°13'1815.3
2016-Jul-21 18:20N 24°29' E 118°57'2614.3
2016-Jul-21 16:32N 24°15' E 118°33'1414.1
2016-Jul-21 15:33N 24°13' E 118°18'1110.9
2016-Jul-21 14:33N 24°21' E 118°10'10 9.9
2016-Jul-21 13:33N 24°27' E 118°01'0 0.2
2016-Jul-21 11:11N 24°27' E 118°00'0 0.0
2016-Jul-21 10:32N 24°27' E 118°00'0 0.0
2016-Jul-21 09:14N 24°27' E 118°00'0 0.0
2016-Jul-21 08:26N 24°27' E 118°00'4 4.3
2016-Jul-21 07:33N 24°25' E 118°04'9 8.8
2016-Jul-21 06:33N 24°19' E 118°11'1414.3
2016-Jul-21 05:33N 24°08' E 118°21'1514.9
2016-Jul-21 04:33N 23°55' E 118°13'1716.1
2016-Jul-21 03:30N 23°43' E 118°00'232 8.6
2016-Jul-20 00:30N 22°18' E 114°06'  
Track history (hours):
 
Tides and Currents Weather Stations Pressure Air Temp Water Temp Dewpoint Dewpoint Depression Visibility Wind Speed Wind Dir Waves Ship Positions

Santa Rosa

Last reported at 2016-Jul-26 07:30 UTC. Time now 2016-Jul-29 02:13 UTC.
Position N 30°32' E 122°60'.

Length 300 m; draft 11.4 m.

Type: Cargo ship. MMSI: 636092266.

Date/timePositionNaut miles runAvg speedWind from/ knotsBaromVisibWave heightAir tempDewpointWater temp
2016-Jul-26 07:30N 30°32' E 122°60'1414.2
2016-Jul-26 06:31N 30°28' E 122°44'3 0.1
2016-Jul-24 22:29N 30°27' E 122°47'6 6.1
2016-Jul-24 21:32N 30°23' E 122°52'48 4.8
2016-Jul-24 11:31N 29°48' E 122°15'9 9.0
2016-Jul-24 10:33N 29°48' E 122°05'4 3.9
2016-Jul-24 09:31N 29°46' E 122°01'0 0.0
2016-Jul-24 04:26N 29°46' E 122°01'0 0.0
2016-Jul-23 20:12N 29°46' E 122°01'3 5.0
2016-Jul-23 19:33N 29°47' E 122°04'1110.5
2016-Jul-23 18:33N 29°47' E 122°16'8 7.8
2016-Jul-23 17:32N 29°44' E 122°25'7 7.5
2016-Jul-23 16:33N 29°41' E 122°32'1510.5
2016-Jul-23 15:06N 29°25' E 122°33'610.9
2016-Jul-23 14:32N 29°19' E 122°33'1111.1
2016-Jul-23 13:33N 29°09' E 122°37'26 1.8
2016-Jul-22 23:07N 28°46' E 122°25'5 7.7
2016-Jul-22 22:26N 28°41' E 122°23'7 8.3
2016-Jul-22 21:33N 28°34' E 122°20'9 8.4
2016-Jul-22 20:31N 28°26' E 122°16'28011.2
2016-Jul-21 19:30N 24°39' E 119°13'1815.3
2016-Jul-21 18:20N 24°29' E 118°57'2614.3
2016-Jul-21 16:32N 24°15' E 118°33'1414.1
2016-Jul-21 15:33N 24°13' E 118°18'1110.9
2016-Jul-21 14:33N 24°21' E 118°10'10 9.9
2016-Jul-21 13:33N 24°27' E 118°01'0 0.2
2016-Jul-21 11:11N 24°27' E 118°00'0 0.0
2016-Jul-21 10:32N 24°27' E 118°00'0 0.0
2016-Jul-21 09:14N 24°27' E 118°00'0 0.0
2016-Jul-21 08:26N 24°27' E 118°00'4 4.3
2016-Jul-21 07:33N 24°25' E 118°04'9 8.8
2016-Jul-21 06:33N 24°19' E 118°11'1414.3
2016-Jul-21 05:33N 24°08' E 118°21'1514.9
2016-Jul-21 04:33N 23°55' E 118°13'1716.1
2016-Jul-21 03:30N 23°43' E 118°00'232 8.6
2016-Jul-20 00:30N 22°18' E 114°06'  

Dump ship's entire track history